East Sparta, Ohio
Current Conditions -  °F | °C
As of 3:53 PM on Monday 22 Dec 2014 (Local Time) from KPHD Reporting Station
Clear Clear  
Wind Chill: 46°   Ceiling: Unl
Heat Index: 46°   Visibility: 10mi
Dew Point: 33°   Wind: 3mph
Humidity: 61%   Direction: 60°ENE
Pressure: 29.97"   Gusts: NA
Location:  40.67°N, 81.35°W
Report Text: KPHD 222053Z AUTO 06003KT 10SM CLR 08/01 A2997 RMK AO2 SLP157 T00780006 55017
Loading
Personal Weather Stations






























Interactive Weather Map New forecast layout! Learn more

10-Day Weather Forecast

Advertisements
Track Severe Weather on mobile